Time;durP1;ratioP1;P1;durP2;ratioP2;P2;SDS_P1;SDS_P2;PMS_P1;PMS_P2;Temp;Humidity;BMP_temperature;BMP_pressure;BME280_temperature;BME280_humidity;BME280_pressure;Samples;Min_cycle;Max_cycle;Signal;HPM_P1;HPM_P2
2021/03/07 00:02:20;;;;;;;;;;;21.90;98.40;;;;;;5036060;28;19909;-83
2021/03/07 00:04:46;;;;;;;;;;;22.00;98.20;;;;;;5036528;28;20003;-85
2021/03/07 00:07:14;;;;;;;;;;;22.30;98.00;;;;;;5053572;28;19917;-82
2021/03/07 00:09:41;;;;;;;;;;;22.50;97.70;;;;;;5054032;28;19909;-85
2021/03/07 00:12:11;;;;;;;;;;;22.50;97.20;;;;;;5051612;28;19963;-85
2021/03/07 00:14:37;;;;;;;;;;;22.30;97.40;;;;;;5036116;28;19995;-85
2021/03/07 00:17:04;;;;;;;;;;;22.20;98.00;;;;;;5051317;28;19909;-82
2021/03/07 00:19:31;;;;;;;;;;;22.20;98.20;;;;;;5063596;28;20283;-79
2021/03/07 00:22:01;;;;;;;;;;;22.10;97.70;;;;;;5052968;28;19916;-84
2021/03/07 00:24:27;;;;;;;;;;;22.20;97.70;;;;;;5053952;28;19982;-86
2021/03/07 00:26:55;;;;;;;;;;;22.20;97.90;;;;;;5037666;28;19960;-79
2021/03/07 00:29:21;;;;;;;;;;;22.40;98.70;;;;;;5066216;28;20374;-82
2021/03/07 00:31:48;;;;;;;;;;;22.80;98.00;;;;;;5053577;28;20417;-86
2021/03/07 00:34:15;;;;;;;;;;;23.00;97.70;;;;;;5053765;28;19992;-85
2021/03/07 00:36:41;;;;;;;;;;;23.10;97.50;;;;;;5053905;28;19913;-84
2021/03/07 00:39:11;;;;;;;;;;;23.20;96.40;;;;;;5056744;28;19909;-84
2021/03/07 00:41:38;;;;;;;;;;;23.10;96.70;;;;;;5042782;28;19913;-85
2021/03/07 00:44:08;;;;;;;;;;;23.10;96.60;;;;;;5037257;28;20360;-81
2021/03/07 00:46:38;;;;;;;;;;;23.20;96.40;;;;;;5039383;28;20422;-81
2021/03/07 00:49:05;;;;;;;;;;;23.10;96.50;;;;;;5037699;28;20426;-82
2021/03/07 00:51:31;;;;;;;;;;;22.90;96.80;;;;;;5034567;28;19910;-83
2021/03/07 00:53:58;;;;;;;;;;;22.90;96.80;;;;;;5033586;28;19910;-82
2021/03/07 00:56:25;;;;;;;;;;;22.90;97.00;;;;;;5033577;28;20019;-82
2021/03/07 00:58:51;;;;;;;;;;;22.90;97.60;;;;;;5033623;28;20260;-85
2021/03/07 01:01:18;;;;;;;;;;;22.80;97.20;;;;;;5057311;28;19912;-84
2021/03/07 01:03:45;;;;;;;;;;;22.80;97.90;;;;;;5034213;28;19917;-84
2021/03/07 01:06:13;;;;;;;;;;;23.00;97.60;;;;;;5054883;28;19917;-83
2021/03/07 01:08:39;;;;;;;;;;;23.20;97.00;;;;;;5064428;28;19970;-81
2021/03/07 01:11:07;;;;;;;;;;;23.40;96.80;;;;;;5072501;28;19912;-79
2021/03/07 01:13:33;;;;;;;;;;;23.50;96.80;;;;;;5073187;28;19912;-83
2021/03/07 01:16:00;;;;;;;;;;;23.70;96.50;;;;;;5073033;28;19951;-83
2021/03/07 01:18:27;;;;;;;;;;;23.90;95.80;;;;;;5054385;28;19913;-86
2021/03/07 01:20:53;;;;;;;;;;;24.10;95.60;;;;;;5054987;28;19908;-80
2021/03/07 01:23:21;;;;;;;;;;;24.10;96.00;;;;;;5055186;28;19913;-83
2021/03/07 01:25:54;;;;;;;;;;;24.20;96.00;;;;;;5072644;28;19921;-85
2021/03/07 01:28:23;;;;;;;;;;;24.80;95.00;;;;;;5058081;28;20386;-85
2021/03/07 01:30:56;;;;;;;;;;;24.90;94.00;;;;;;5049247;28;20048;-84
2021/03/07 01:33:22;;;;;;;;;;;24.90;94.60;;;;;;5033205;28;19920;-85
2021/03/07 01:35:50;;;;;;;;;;;24.70;94.20;;;;;;5054852;28;19913;-83
2021/03/07 01:38:20;;;;;;;;;;;24.30;94.80;;;;;;5057436;28;20244;-84
2021/03/07 01:40:48;;;;;;;;;;;24.50;94.60;;;;;;5058422;28;20479;-83
2021/03/07 01:43:15;;;;;;;;;;;24.30;94.70;;;;;;5057365;28;19916;-84
2021/03/07 01:45:42;;;;;;;;;;;24.10;95.00;;;;;;5039715;28;19923;-84
2021/03/07 01:48:30;;;;;;;;;;;23.90;95.50;;;;;;5060195;28;20421;-84
2021/03/07 01:51:01;;;;;;;;;;;23.80;95.50;;;;;;5042355;28;19917;-84
2021/03/07 01:53:32;;;;;;;;;;;23.70;95.60;;;;;;5046292;28;19960;-86
2021/03/07 01:56:05;;;;;;;;;;;23.60;95.90;;;;;;5063638;28;20359;-86
2021/03/07 01:58:38;;;;;;;;;;;23.50;96.00;;;;;;5057542;28;19924;-86
2021/03/07 02:01:06;;;;;;;;;;;23.60;96.10;;;;;;5039772;28;19908;-84
2021/03/07 02:03:37;;;;;;;;;;;23.60;96.10;;;;;;5038921;28;19931;-84
2021/03/07 02:06:05;;;;;;;;;;;23.60;95.60;;;;;;5056461;28;19918;-82
2021/03/07 02:08:33;;;;;;;;;;;23.60;96.40;;;;;;5056645;28;19982;-83
2021/03/07 02:11:00;;;;;;;;;;;23.60;96.10;;;;;;5056088;28;19909;-84
2021/03/07 02:13:32;;;;;;;;;;;23.70;96.00;;;;;;5021775;28;19999;-84
2021/03/07 02:16:02;;;;;;;;;;;23.70;95.90;;;;;;5037492;28;19909;-83
2021/03/07 02:18:30;;;;;;;;;;;23.70;96.30;;;;;;5040764;28;20390;-83
2021/03/07 02:20:58;;;;;;;;;;;23.70;96.20;;;;;;5065031;28;19924;-84
2021/03/07 02:23:29;;;;;;;;;;;23.80;96.20;;;;;;5038040;28;19916;-84
2021/03/07 02:25:58;;;;;;;;;;;23.80;96.60;;;;;;5056326;28;19921;-84
2021/03/07 02:28:26;;;;;;;;;;;23.90;96.30;;;;;;5056586;28;19913;-84
2021/03/07 02:30:54;;;;;;;;;;;23.70;96.20;;;;;;5053025;28;19908;-84
2021/03/07 02:33:28;;;;;;;;;;;23.70;96.60;;;;;;5049260;28;20006;-82
2021/03/07 02:36:05;;;;;;;;;;;23.70;96.40;;;;;;5066437;28;20003;-83
2021/03/07 02:38:34;;;;;;;;;;;23.90;96.30;;;;;;5056188;28;19924;-84
2021/03/07 02:41:01;;;;;;;;;;;23.90;96.30;;;;;;5055160;28;19909;-82
2021/03/07 02:43:32;;;;;;;;;;;24.00;96.50;;;;;;5037286;28;19913;-83
2021/03/07 02:46:00;;;;;;;;;;;24.10;95.70;;;;;;5056441;28;19917;-84
2021/03/07 02:48:32;;;;;;;;;;;24.10;95.80;;;;;;5057494;28;20283;-80
2021/03/07 02:51:01;;;;;;;;;;;24.10;96.20;;;;;;5055250;28;20359;-82
2021/03/07 02:53:29;;;;;;;;;;;24.20;95.90;;;;;;5063087;28;19916;-81
2021/03/07 02:56:08;;;;;;;;;;;24.00;95.90;;;;;;5057658;28;19939;-81
2021/03/07 02:58:37;;;;;;;;;;;23.90;96.10;;;;;;5075440;28;19905;-81
2021/03/07 03:01:05;;;;;;;;;;;24.00;96.30;;;;;;5057723;28;19959;-82
2021/03/07 03:03:33;;;;;;;;;;;23.90;95.70;;;;;;5053757;28;19948;-80
2021/03/07 03:06:00;;;;;;;;;;;23.90;96.10;;;;;;5036573;28;20312;-81
2021/03/07 03:08:28;;;;;;;;;;;23.90;96.30;;;;;;5046894;28;20103;-81
2021/03/07 03:10:55;;;;;;;;;;;24.00;97.00;;;;;;5033991;28;19909;-82
2021/03/07 03:13:35;;;;;;;;;;;23.90;96.20;;;;;;5036516;28;19932;-85
2021/03/07 03:16:03;;;;;;;;;;;23.90;96.10;;;;;;5038767;28;20522;-80
2021/03/07 03:18:31;;;;;;;;;;;24.10;96.20;;;;;;5037644;28;19944;-83
2021/03/07 03:21:05;;;;;;;;;;;24.10;96.50;;;;;;5038658;28;19916;-81
2021/03/07 03:23:32;;;;;;;;;;;24.10;96.20;;;;;;5037592;28;19909;-81
2021/03/07 03:25:58;;;;;;;;;;;24.10;96.20;;;;;;5033879;28;19964;-81
2021/03/07 03:28:25;;;;;;;;;;;24.10;96.20;;;;;;5050054;28;19917;-81
2021/03/07 03:30:53;;;;;;;;;;;24.00;96.10;;;;;;5050951;28;19920;-81
2021/03/07 03:33:29;;;;;;;;;;;24.20;95.90;;;;;;5036332;28;19915;-81
2021/03/07 03:35:56;;;;;;;;;;;24.10;96.00;;;;;;5056407;28;19916;-82
2021/03/07 03:38:26;;;;;;;;;;;24.00;95.70;;;;;;5041900;28;19908;-82
2021/03/07 03:40:54;;;;;;;;;;;24.00;96.40;;;;;;5045891;28;19924;-80
2021/03/07 03:43:24;;;;;;;;;;;23.90;96.60;;;;;;5053380;28;19909;-83
2021/03/07 03:45:56;;;;;;;;;;;23.90;96.20;;;;;;5035262;28;19971;-84
2021/03/07 03:48:26;;;;;;;;;;;23.90;96.30;;;;;;5053878;28;19913;-84
2021/03/07 03:50:53;;;;;;;;;;;23.90;96.30;;;;;;5050447;28;19920;-84
2021/03/07 03:53:21;;;;;;;;;;;23.90;96.70;;;;;;5053613;28;19909;-85
2021/03/07 03:55:53;;;;;;;;;;;23.80;96.70;;;;;;5034011;28;20003;-81
2021/03/07 03:58:24;;;;;;;;;;;23.80;96.60;;;;;;5035616;28;19928;-82
2021/03/07 04:00:53;;;;;;;;;;;23.80;96.70;;;;;;5053449;28;19909;-80
2021/03/07 04:03:20;;;;;;;;;;;23.90;96.80;;;;;;5053113;28;19999;-85
2021/03/07 04:05:47;;;;;;;;;;;23.90;96.80;;;;;;5034493;28;19919;-80
2021/03/07 04:08:18;;;;;;;;;;;23.90;97.10;;;;;;5053853;28;19999;-82
2021/03/07 04:10:45;;;;;;;;;;;23.90;97.10;;;;;;5052702;28;19921;-80
2021/03/07 04:13:20;;;;;;;;;;;23.80;97.00;;;;;;5053181;28;19935;-83
2021/03/07 04:15:47;;;;;;;;;;;23.80;97.60;;;;;;5053437;28;19917;-82
2021/03/07 04:18:17;;;;;;;;;;;23.80;97.40;;;;;;5053361;28;19915;-82
2021/03/07 04:20:45;;;;;;;;;;;23.80;97.30;;;;;;5034921;28;20003;-82
2021/03/07 04:23:11;;;;;;;;;;;23.90;97.20;;;;;;5035642;28;19913;-81
2021/03/07 04:25:38;;;;;;;;;;;23.90;97.30;;;;;;5052397;28;19924;-82
2021/03/07 04:28:05;;;;;;;;;;;23.90;97.10;;;;;;5052792;28;20054;-82
2021/03/07 04:30:35;;;;;;;;;;;23.80;97.00;;;;;;5053728;28;19927;-83
2021/03/07 04:33:03;;;;;;;;;;;23.70;97.50;;;;;;5058379;28;19909;-82
2021/03/07 04:35:33;;;;;;;;;;;23.80;97.60;;;;;;5037846;28;19909;-84
2021/03/07 04:38:00;;;;;;;;;;;23.80;97.40;;;;;;5015508;28;19972;-84
2021/03/07 04:40:37;;;;;;;;;;;23.90;97.20;;;;;;5033989;28;19952;-84
2021/03/07 04:43:06;;;;;;;;;;;23.80;97.20;;;;;;5035928;28;19916;-84
2021/03/07 04:45:33;;;;;;;;;;;23.80;97.00;;;;;;5032674;28;19916;-84
2021/03/07 04:48:00;;;;;;;;;;;23.80;97.10;;;;;;5014870;28;20016;-87
2021/03/07 04:50:27;;;;;;;;;;;23.80;97.60;;;;;;5030543;28;19913;-84
2021/03/07 04:52:55;;;;;;;;;;;23.90;97.70;;;;;;5034127;28;19909;-86
2021/03/07 04:55:22;;;;;;;;;;;23.90;97.50;;;;;;5034601;28;20252;-85
2021/03/07 04:57:49;;;;;;;;;;;24.00;97.20;;;;;;5052302;28;19999;-82
2021/03/07 05:00:17;;;;;;;;;;;23.80;96.60;;;;;;5052448;28;19909;-85
2021/03/07 05:02:44;;;;;;;;;;;23.80;97.00;;;;;;5034644;28;19913;-83
2021/03/07 05:05:10;;;;;;;;;;;23.80;97.20;;;;;;5051929;28;19931;-84
2021/03/07 05:07:37;;;;;;;;;;;23.90;97.20;;;;;;5052048;28;20011;-84
2021/03/07 05:10:05;;;;;;;;;;;23.90;96.90;;;;;;5033226;28;19915;-83
2021/03/07 05:12:32;;;;;;;;;;;23.90;96.80;;;;;;5052376;28;19920;-84
2021/03/07 05:15:00;;;;;;;;;;;23.80;97.10;;;;;;5051290;28;19915;-84
2021/03/07 05:17:27;;;;;;;;;;;23.80;97.50;;;;;;5034655;28;19912;-86
2021/03/07 05:19:54;;;;;;;;;;;23.70;97.30;;;;;;5052614;28;20034;-85
2021/03/07 05:22:21;;;;;;;;;;;23.60;97.30;;;;;;5053138;28;20411;-84
2021/03/07 05:24:51;;;;;;;;;;;23.70;97.40;;;;;;5052620;28;20291;-83
2021/03/07 05:27:18;;;;;;;;;;;23.70;97.50;;;;;;5034926;28;19917;-85
2021/03/07 05:29:45;;;;;;;;;;;23.80;97.10;;;;;;5034412;28;19915;-84
2021/03/07 05:32:11;;;;;;;;;;;23.80;96.90;;;;;;5053809;28;19955;-81
2021/03/07 05:34:38;;;;;;;;;;;23.80;96.90;;;;;;5053193;28;19995;-83
2021/03/07 05:37:05;;;;;;;;;;;23.80;96.80;;;;;;5052517;28;19916;-83
2021/03/07 05:39:33;;;;;;;;;;;23.80;96.80;;;;;;5033647;28;19915;-82
2021/03/07 05:42:02;;;;;;;;;;;23.70;96.80;;;;;;5035103;28;20290;-83
2021/03/07 05:44:29;;;;;;;;;;;23.70;96.90;;;;;;5051672;28;19909;-83
2021/03/07 05:46:57;;;;;;;;;;;23.60;97.10;;;;;;5050918;28;20417;-84
2021/03/07 05:49:24;;;;;;;;;;;23.60;97.10;;;;;;5054561;28;19950;-83
2021/03/07 05:51:52;;;;;;;;;;;23.60;96.80;;;;;;5039837;28;19909;-82
2021/03/07 05:54:20;;;;;;;;;;;23.60;96.50;;;;;;5056727;28;19909;-84
2021/03/07 05:56:49;;;;;;;;;;;23.60;97.30;;;;;;5039808;28;19913;-84
2021/03/07 05:59:17;;;;;;;;;;;23.50;96.70;;;;;;5057892;28;19944;-84
2021/03/07 06:01:44;;;;;;;;;;;23.50;97.10;;;;;;5055643;28;19909;-84
2021/03/07 06:04:11;;;;;;;;;;;23.60;96.80;;;;;;5053135;28;19909;-85
2021/03/07 06:06:37;;;;;;;;;;;23.60;96.50;;;;;;5052987;28;19917;-83
2021/03/07 06:09:21;;;;;;;;;;;23.60;96.60;;;;;;5034701;28;19952;-83
2021/03/07 06:11:49;;;;;;;;;;;23.50;96.30;;;;;;5034200;28;19909;-86
2021/03/07 06:14:29;;;;;;;;;;;23.40;96.60;;;;;;5034884;28;20393;-85
2021/03/07 06:17:00;;;;;;;;;;;23.40;96.50;;;;;;5053087;28;19954;-83
2021/03/07 06:19:26;;;;;;;;;;;23.30;96.60;;;;;;5034716;28;19909;-83
2021/03/07 06:21:59;;;;;;;;;;;23.30;96.80;;;;;;5056159;28;20243;-85
2021/03/07 06:24:39;;;;;;;;;;;23.30;97.10;;;;;;5056302;28;19932;-83
2021/03/07 06:27:07;;;;;;;;;;;23.30;97.10;;;;;;5058185;28;19928;-82
2021/03/07 06:29:34;;;;;;;;;;;23.30;97.50;;;;;;5039280;28;19919;-83
2021/03/07 06:32:07;;;;;;;;;;;23.40;97.20;;;;;;5056351;28;19923;-83
2021/03/07 06:34:42;;;;;;;;;;;23.30;97.60;;;;;;5071444;28;19913;-82
2021/03/07 06:37:08;;;;;;;;;;;23.30;97.30;;;;;;5054098;28;20290;-83
2021/03/07 06:39:38;;;;;;;;;;;23.20;97.50;;;;;;5055367;28;19939;-83
2021/03/07 06:42:10;;;;;;;;;;;23.20;97.30;;;;;;5056148;28;19908;-86
2021/03/07 06:44:37;;;;;;;;;;;23.10;97.60;;;;;;5056000;28;19913;-83
2021/03/07 06:47:11;;;;;;;;;;;23.10;97.60;;;;;;5038282;28;19916;-84
2021/03/07 06:49:39;;;;;;;;;;;23.20;97.60;;;;;;5037872;28;19909;-83
2021/03/07 06:52:16;;;;;;;;;;;23.10;97.60;;;;;;5037542;28;19909;-86
2021/03/07 06:54:44;;;;;;;;;;;23.00;97.80;;;;;;5037786;28;19924;-85
2021/03/07 06:57:11;;;;;;;;;;;23.00;97.90;;;;;;5037910;28;19999;-84
2021/03/07 06:59:38;;;;;;;;;;;22.90;98.20;;;;;;5037541;28;19909;-84
2021/03/07 07:02:11;;;;;;;;;;;23.00;98.10;;;;;;5037333;28;20310;-84
2021/03/07 07:04:41;;;;;;;;;;;22.90;98.60;;;;;;5055707;28;19913;-85
2021/03/07 07:07:16;;;;;;;;;;;22.90;98.60;;;;;;5054581;28;19924;-84
2021/03/07 07:09:44;;;;;;;;;;;22.90;98.80;;;;;;5055395;28;20352;-86
2021/03/07 07:12:24;;;;;;;;;;;22.90;99.30;;;;;;5037525;28;19909;-87
2021/03/07 07:15:11;;;;;;;;;;;22.80;99.40;;;;;;5037573;28;20000;-85
2021/03/07 07:17:37;;;;;;;;;;;22.80;99.40;;;;;;5037535;28;20351;-83
2021/03/07 07:20:05;;;;;;;;;;;22.70;99.50;;;;;;5055625;28;20533;-84
2021/03/07 07:22:33;;;;;;;;;;;22.70;99.70;;;;;;5036871;28;19916;-84
2021/03/07 07:25:00;;;;;;;;;;;22.70;99.90;;;;;;5055057;28;19921;-84
2021/03/07 07:27:27;;;;;;;;;;;22.70;99.90;;;;;;5055617;28;20020;-85
2021/03/07 07:29:57;;;;;;;;;;;22.70;99.90;;;;;;5037311;28;19908;-85
2021/03/07 07:32:24;;;;;;;;;;;22.80;99.90;;;;;;5054732;28;19916;-83
2021/03/07 07:35:05;;;;;;;;;;;22.70;99.90;;;;;;5054013;28;19915;-83
2021/03/07 07:37:34;;;;;;;;;;;22.60;99.90;;;;;;5035424;28;19909;-84
2021/03/07 07:40:01;;;;;;;;;;;22.60;99.90;;;;;;5034775;28;19909;-84
2021/03/07 07:42:32;;;;;;;;;;;22.60;99.90;;;;;;5052771;28;20003;-83
2021/03/07 07:45:18;;;;;;;;;;;22.50;99.90;;;;;;5053988;28;19916;-83
2021/03/07 07:47:45;;;;;;;;;;;22.50;99.90;;;;;;5054092;28;19967;-83
2021/03/07 07:50:30;;;;;;;;;;;22.50;99.90;;;;;;5054457;28;20279;-83
2021/03/07 07:53:12;;;;;;;;;;;22.40;99.90;;;;;;5055015;28;19920;-83
2021/03/07 07:55:44;;;;;;;;;;;22.40;99.90;;;;;;5038240;28;20322;-84
2021/03/07 07:58:11;;;;;;;;;;;22.40;99.90;;;;;;5055872;28;19908;-84
2021/03/07 08:00:51;;;;;;;;;;;22.40;99.90;;;;;;5058061;28;19912;-84
2021/03/07 08:03:40;;;;;;;;;;;22.30;99.90;;;;;;5036890;28;19948;-84
2021/03/07 08:06:10;;;;;;;;;;;22.30;99.90;;;;;;5048841;28;19921;-84
2021/03/07 08:08:41;;;;;;;;;;;22.20;99.90;;;;;;5054196;28;19909;-83
2021/03/07 08:11:26;;;;;;;;;;;22.20;99.90;;;;;;5037891;28;20039;-84
2021/03/07 08:13:54;;;;;;;;;;;22.20;99.90;;;;;;5055324;28;19916;-85
2021/03/07 08:16:40;;;;;;;;;;;22.20;99.90;;;;;;5053824;28;19909;-84
2021/03/07 08:19:15;;;;;;;;;;;22.20;99.90;;;;;;5054066;28;19909;-86
2021/03/07 08:22:00;;;;;;;;;;;22.10;99.90;;;;;;5051752;28;19938;-85
2021/03/07 08:24:46;;;;;;;;;;;22.20;99.90;;;;;;5035699;28;20332;-84
2021/03/07 08:27:30;;;;;;;;;;;22.10;99.90;;;;;;5054384;28;19927;-84
2021/03/07 08:29:57;;;;;;;;;;;22.10;99.90;;;;;;5055280;28;20016;-84
2021/03/07 08:32:34;;;;;;;;;;;22.10;99.90;;;;;;5054237;28;19909;-84
2021/03/07 08:35:10;;;;;;;;;;;22.10;99.90;;;;;;5054513;28;20382;-84
2021/03/07 08:37:38;;;;;;;;;;;22.10;99.90;;;;;;5057337;28;19913;-84
2021/03/07 08:40:23;;;;;;;;;;;22.10;99.90;;;;;;5056661;28;19909;-83
2021/03/07 08:42:49;;;;;;;;;;;22.10;99.90;;;;;;5056156;28;19909;-83
2021/03/07 08:45:17;;;;;;;;;;;22.00;99.90;;;;;;5050464;28;19909;-83
2021/03/07 08:47:53;;;;;;;;;;;22.00;99.90;;;;;;5052355;28;19921;-84
2021/03/07 08:50:25;;;;;;;;;;;22.00;99.90;;;;;;5051015;28;20275;-84
2021/03/07 08:52:53;;;;;;;;;;;22.00;99.90;;;;;;5066725;28;19924;-84
2021/03/07 08:55:21;;;;;;;;;;;22.00;99.90;;;;;;5051290;28;20256;-85
2021/03/07 08:57:48;;;;;;;;;;;22.00;99.90;;;;;;5066682;28;19917;-84
2021/03/07 09:00:18;;;;;;;;;;;22.00;99.90;;;;;;5052447;28;19913;-85
2021/03/07 09:02:46;;;;;;;;;;;22.00;99.90;;;;;;5053939;28;19913;-85
2021/03/07 09:05:29;;;;;;;;;;;22.00;99.90;;;;;;5067033;28;19916;-80
2021/03/07 09:08:03;;;;;;;;;;;22.00;99.90;;;;;;5073654;28;19923;-82
2021/03/07 09:10:35;;;;;;;;;;;21.90;99.90;;;;;;5051602;28;19923;-86
2021/03/07 09:13:27;;;;;;;;;;;22.00;99.90;;;;;;5052842;28;19909;-85
2021/03/07 09:16:10;;;;;;;;;;;22.00;99.90;;;;;;5052837;28;19912;-84
2021/03/07 09:18:41;;;;;;;;;;;22.00;99.90;;;;;;5034579;28;19944;-85
2021/03/07 09:21:12;;;;;;;;;;;22.00;99.90;;;;;;5035007;28;19913;-85
2021/03/07 09:23:46;;;;;;;;;;;22.00;99.90;;;;;;5035220;28;20363;-83
2021/03/07 09:26:15;;;;;;;;;;;21.90;99.90;;;;;;5052795;28;20394;-81
2021/03/07 09:28:49;;;;;;;;;;;21.90;99.90;;;;;;5052965;28;20359;-83
2021/03/07 09:31:23;;;;;;;;;;;21.90;99.90;;;;;;5052822;28;20393;-82
2021/03/07 09:33:55;;;;;;;;;;;22.00;99.90;;;;;;5051959;28;19912;-82
2021/03/07 09:36:23;;;;;;;;;;;21.90;99.90;;;;;;5052029;28;19924;-83
2021/03/07 09:38:53;;;;;;;;;;;22.00;99.90;;;;;;5034609;28;19909;-83
2021/03/07 09:41:39;;;;;;;;;;;21.90;99.90;;;;;;5034327;28;20282;-84
2021/03/07 09:44:07;;;;;;;;;;;21.90;99.90;;;;;;5066006;28;19910;-85
2021/03/07 09:46:34;;;;;;;;;;;21.90;99.90;;;;;;5052156;28;19916;-84
2021/03/07 09:49:04;;;;;;;;;;;21.90;99.90;;;;;;5052788;28;19909;-84
2021/03/07 09:51:32;;;;;;;;;;;21.90;99.90;;;;;;5052885;28;20004;-82
2021/03/07 09:53:59;;;;;;;;;;;21.90;99.90;;;;;;5035469;28;20375;-82
2021/03/07 09:56:27;;;;;;;;;;;21.90;99.90;;;;;;5056396;28;20351;-83
2021/03/07 09:58:54;;;;;;;;;;;21.90;99.90;;;;;;5056783;28;19987;-82
2021/03/07 10:01:20;;;;;;;;;;;21.90;99.90;;;;;;5055828;28;19916;-84
2021/03/07 10:03:47;;;;;;;;;;;21.90;99.90;;;;;;5056209;28;19988;-83
2021/03/07 10:06:18;;;;;;;;;;;21.90;99.90;;;;;;5055989;28;19921;-82
2021/03/07 10:08:45;;;;;;;;;;;21.90;99.90;;;;;;5056432;28;19916;-81
2021/03/07 10:11:13;;;;;;;;;;;21.90;99.90;;;;;;5056254;28;20426;-81
2021/03/07 10:13:41;;;;;;;;;;;21.90;99.90;;;;;;5056428;28;19909;-80
2021/03/07 10:16:08;;;;;;;;;;;21.90;99.90;;;;;;5056020;28;19909;-83
2021/03/07 10:18:35;;;;;;;;;;;21.90;99.90;;;;;;5056099;28;20450;-84
2021/03/07 10:21:04;;;;;;;;;;;21.90;99.90;;;;;;5038037;28;20259;-83
2021/03/07 10:23:32;;;;;;;;;;;21.90;99.90;;;;;;5056090;28;19983;-81
2021/03/07 10:25:59;;;;;;;;;;;21.90;99.90;;;;;;5055983;28;20371;-81
2021/03/07 10:28:28;;;;;;;;;;;21.90;99.90;;;;;;5056238;28;19913;-82
2021/03/07 10:30:56;;;;;;;;;;;21.90;99.90;;;;;;5037569;28;19909;-82
2021/03/07 10:33:29;;;;;;;;;;;21.90;99.90;;;;;;5055879;28;20278;-82
2021/03/07 10:36:07;;;;;;;;;;;21.90;99.90;;;;;;5055209;28;19962;-85
2021/03/07 10:38:35;;;;;;;;;;;21.90;99.90;;;;;;5038319;28;20016;-82
2021/03/07 10:41:20;;;;;;;;;;;21.90;99.90;;;;;;5037906;28;19909;-77
2021/03/07 10:43:50;;;;;;;;;;;21.90;99.90;;;;;;5055528;28;19923;-81
2021/03/07 10:46:43;;;;;;;;;;;21.90;99.90;;;;;;5052062;28;19940;-81
2021/03/07 10:49:10;;;;;;;;;;;21.90;99.90;;;;;;5053006;28;20019;-81
2021/03/07 10:51:38;;;;;;;;;;;21.90;99.90;;;;;;5037818;28;20260;-80
2021/03/07 10:54:05;;;;;;;;;;;21.90;99.90;;;;;;5055839;28;19924;-80
2021/03/07 10:56:32;;;;;;;;;;;21.90;99.90;;;;;;5038063;28;19909;-81
2021/03/07 10:58:59;;;;;;;;;;;21.90;99.90;;;;;;5037910;28;19909;-85
2021/03/07 11:01:26;;;;;;;;;;;21.90;99.90;;;;;;5038402;28;19909;-87
2021/03/07 11:03:53;;;;;;;;;;;21.90;99.90;;;;;;5037532;28;20039;-81
2021/03/07 11:06:20;;;;;;;;;;;21.90;99.90;;;;;;5054462;28;19912;-81
2021/03/07 11:08:47;;;;;;;;;;;21.90;99.90;;;;;;5055786;28;19909;-81
2021/03/07 11:11:14;;;;;;;;;;;21.90;99.90;;;;;;5055601;28;20321;-84
2021/03/07 11:13:41;;;;;;;;;;;21.80;99.90;;;;;;5037246;28;19909;-82
2021/03/07 11:16:08;;;;;;;;;;;21.80;99.90;;;;;;5054910;28;20347;-80
2021/03/07 11:18:35;;;;;;;;;;;21.80;99.90;;;;;;5055502;28;19913;-81
2021/03/07 11:21:02;;;;;;;;;;;21.80;99.90;;;;;;5054746;28;19919;-82
2021/03/07 11:23:29;;;;;;;;;;;21.80;99.90;;;;;;5058087;28;19919;-81
2021/03/07 11:25:56;;;;;;;;;;;21.80;99.90;;;;;;5058216;28;19971;-82
2021/03/07 11:28:22;;;;;;;;;;;21.80;99.90;;;;;;5058906;28;19912;-81
2021/03/07 11:30:49;;;;;;;;;;;21.80;99.90;;;;;;5041150;28;19909;-82
2021/03/07 11:33:18;;;;;;;;;;;21.70;99.90;;;;;;5059024;28;19924;-82
2021/03/07 11:35:45;;;;;;;;;;;21.80;99.90;;;;;;5058801;28;19909;-82
2021/03/07 11:38:12;;;;;;;;;;;21.80;99.90;;;;;;5052251;28;19944;-82
2021/03/07 11:40:38;;;;;;;;;;;21.70;99.90;;;;;;5054932;28;19909;-82
2021/03/07 11:43:05;;;;;;;;;;;21.70;99.90;;;;;;5054986;28;19952;-82
2021/03/07 11:45:32;;;;;;;;;;;21.70;99.90;;;;;;5054977;28;19913;-82
2021/03/07 11:47:58;;;;;;;;;;;21.70;99.90;;;;;;5054864;28;19923;-82
2021/03/07 11:50:25;;;;;;;;;;;21.70;99.90;;;;;;5054618;28;20325;-82
2021/03/07 11:52:52;;;;;;;;;;;21.70;99.90;;;;;;5054846;28;20304;-82
2021/03/07 11:55:18;;;;;;;;;;;21.70;99.90;;;;;;5054572;28;19909;-82
2021/03/07 11:57:45;;;;;;;;;;;21.70;99.90;;;;;;5054591;28;19909;-81
2021/03/07 12:00:12;;;;;;;;;;;21.70;99.90;;;;;;5054440;28;19936;-82
2021/03/07 12:02:39;;;;;;;;;;;21.70;99.90;;;;;;5054654;28;20363;-82
2021/03/07 12:05:06;;;;;;;;;;;21.70;99.90;;;;;;5054573;28;20378;-83
2021/03/07 12:07:33;;;;;;;;;;;21.70;99.90;;;;;;5054360;28;19917;-82
2021/03/07 12:10:00;;;;;;;;;;;21.70;99.90;;;;;;5054149;28;20302;-83
2021/03/07 12:12:26;;;;;;;;;;;21.70;99.90;;;;;;5054229;28;19936;-82
2021/03/07 12:14:53;;;;;;;;;;;21.70;99.90;;;;;;5036351;28;19909;-82
2021/03/07 12:17:20;;;;;;;;;;;21.60;99.90;;;;;;5036317;28;19970;-82
2021/03/07 12:19:48;;;;;;;;;;;21.70;99.90;;;;;;5053969;28;19915;-82
2021/03/07 12:22:15;;;;;;;;;;;21.60;99.90;;;;;;5054204;28;19909;-82
2021/03/07 12:24:41;;;;;;;;;;;21.60;99.90;;;;;;5053946;28;20436;-82
2021/03/07 12:27:09;;;;;;;;;;;21.60;99.90;;;;;;5053992;28;19963;-81
2021/03/07 12:29:37;;;;;;;;;;;21.60;99.90;;;;;;5053802;28;19923;-82
2021/03/07 12:32:07;;;;;;;;;;;21.60;99.90;;;;;;5053898;28;19916;-82
2021/03/07 12:34:34;;;;;;;;;;;21.60;99.90;;;;;;5035921;28;19909;-83
2021/03/07 12:37:01;;;;;;;;;;;21.50;99.90;;;;;;5053843;28;19915;-83
2021/03/07 12:39:27;;;;;;;;;;;21.50;99.90;;;;;;5053823;28;19982;-83
2021/03/07 12:41:54;;;;;;;;;;;21.50;99.90;;;;;;5035305;28;20274;-82
2021/03/07 12:44:21;;;;;;;;;;;21.50;99.90;;;;;;5053613;28;19909;-82
2021/03/07 12:46:48;;;;;;;;;;;21.50;99.90;;;;;;5035764;28;20031;-82
2021/03/07 12:49:15;;;;;;;;;;;21.40;99.90;;;;;;5036374;28;19913;-82
2021/03/07 12:51:42;;;;;;;;;;;21.50;99.90;;;;;;5053696;28;19916;-82
2021/03/07 12:54:09;;;;;;;;;;;21.40;99.90;;;;;;5035544;28;20274;-82
2021/03/07 12:56:38;;;;;;;;;;;21.40;99.90;;;;;;5035961;28;21003;-82
2021/03/07 12:59:06;;;;;;;;;;;21.40;99.90;;;;;;5053498;28;19908;-82
2021/03/07 13:01:32;;;;;;;;;;;21.40;99.90;;;;;;5035348;28;19908;-83
2021/03/07 13:03:59;;;;;;;;;;;21.40;99.90;;;;;;5053692;28;19913;-82
2021/03/07 13:06:26;;;;;;;;;;;21.40;99.90;;;;;;5035291;28;19912;-82
2021/03/07 13:08:55;;;;;;;;;;;21.30;99.90;;;;;;5053217;28;19935;-83
2021/03/07 13:11:22;;;;;;;;;;;21.40;99.90;;;;;;5053740;28;19915;-83
2021/03/07 13:13:49;;;;;;;;;;;21.30;99.90;;;;;;5053217;28;19908;-83
2021/03/07 13:16:15;;;;;;;;;;;21.30;99.90;;;;;;5053620;28;19909;-83
2021/03/07 13:18:42;;;;;;;;;;;21.30;99.90;;;;;;5053680;28;20248;-82
2021/03/07 13:21:09;;;;;;;;;;;21.30;99.90;;;;;;5068419;28;19912;-82
2021/03/07 13:23:36;;;;;;;;;;;21.40;99.90;;;;;;5053137;28;19909;-83
2021/03/07 13:26:03;;;;;;;;;;;21.30;99.90;;;;;;5034667;28;19924;-83
2021/03/07 13:28:29;;;;;;;;;;;21.30;99.90;;;;;;5053086;28;19954;-83
2021/03/07 13:30:56;;;;;;;;;;;21.30;99.90;;;;;;5052756;28;19916;-83
2021/03/07 13:33:26;;;;;;;;;;;21.30;99.90;;;;;;5053005;28;19913;-83
2021/03/07 13:35:52;;;;;;;;;;;21.30;99.90;;;;;;5052771;28;19958;-83
2021/03/07 13:38:19;;;;;;;;;;;21.30;99.90;;;;;;5035115;28;20271;-83
2021/03/07 13:40:46;;;;;;;;;;;21.30;99.90;;;;;;5053468;28;19931;-83
2021/03/07 13:43:13;;;;;;;;;;;21.30;99.90;;;;;;5068642;28;19944;-83
2021/03/07 13:45:40;;;;;;;;;;;21.30;99.90;;;;;;5052526;28;19916;-83
2021/03/07 13:48:07;;;;;;;;;;;21.30;99.90;;;;;;5034928;28;19924;-83
2021/03/07 13:50:35;;;;;;;;;;;21.20;99.90;;;;;;5052605;28;19915;-83
2021/03/07 13:53:03;;;;;;;;;;;21.30;99.90;;;;;;5052853;28;20003;-82
2021/03/07 13:55:33;;;;;;;;;;;21.20;99.90;;;;;;5052850;28;19909;-83
2021/03/07 13:57:59;;;;;;;;;;;21.20;99.90;;;;;;5052655;28;19909;-83
2021/03/07 14:00:27;;;;;;;;;;;21.20;99.90;;;;;;5034773;28;19909;-83
2021/03/07 14:02:54;;;;;;;;;;;21.20;99.90;;;;;;5053183;28;19955;-83
2021/03/07 14:05:21;;;;;;;;;;;21.10;99.90;;;;;;5052574;28;19909;-83
2021/03/07 14:07:49;;;;;;;;;;;21.10;99.90;;;;;;5053105;28;19917;-83
2021/03/07 14:10:17;;;;;;;;;;;21.10;99.90;;;;;;5040115;28;19908;-83
2021/03/07 14:12:44;;;;;;;;;;;21.10;99.90;;;;;;5058756;28;19909;-83
2021/03/07 14:15:14;;;;;;;;;;;21.10;99.90;;;;;;5058105;28;20011;-83
2021/03/07 14:17:42;;;;;;;;;;;21.10;99.90;;;;;;5056461;28;19915;-83
2021/03/07 14:20:09;;;;;;;;;;;21.10;99.90;;;;;;5038190;28;19908;-83
2021/03/07 14:22:36;;;;;;;;;;;21.00;99.90;;;;;;5053450;28;19909;-83
2021/03/07 14:25:06;;;;;;;;;;;21.00;99.90;;;;;;5034397;28;19924;-83
2021/03/07 14:27:34;;;;;;;;;;;21.00;99.90;;;;;;5034844;28;19996;-83
2021/03/07 14:30:02;;;;;;;;;;;21.00;99.90;;;;;;5067872;28;19913;-83